Time;durP1;ratioP1;P1;durP2;ratioP2;P2;SDS_P1;SDS_P2;PMS_P1;PMS_P2;Temp;Humidity;BMP_temperature;BMP_pressure;BME280_temperature;BME280_humidity;BME280_pressure;Samples;Min_cycle;Max_cycle;Signal;HPM_P1;HPM_P2
2021/08/15 00:00:40;;;;;;;10.83;9.93;;;;;;;24.46;81.70;96508.91;5074030;28;20175;-65
2021/08/15 00:03:05;;;;;;;11.67;10.57;;;;;;;24.47;81.20;96502.47;5073627;28;20167;-68
2021/08/15 00:05:31;;;;;;;11.10;10.10;;;;;;;24.54;81.06;96502.81;5063021;28;20195;-68
2021/08/15 00:07:56;;;;;;;11.37;10.47;;;;;;;24.49;80.64;96498.34;5054100;28;20195;-68
2021/08/15 00:10:22;;;;;;;11.03;10.03;;;;;;;24.32;80.68;96494.78;5053743;28;20218;-65
2021/08/15 00:12:48;;;;;;;12.80;11.60;;;;;;;24.28;80.90;96494.63;5053432;28;20179;-68
2021/08/15 00:15:15;;;;;;;11.93;10.80;;;;;;;24.33;80.70;96491.78;5053604;28;20498;-68
2021/08/15 00:17:41;;;;;;;12.37;11.17;;;;;;;24.25;80.86;96489.09;5053854;28;20182;-67
2021/08/15 00:20:09;;;;;;;10.20;9.20;;;;;;;24.12;81.96;96498.00;5056128;28;20781;-68
2021/08/15 00:22:43;;;;;;;11.10;10.10;;;;;;;24.14;81.57;96491.25;5053681;28;20410;-67
2021/08/15 00:25:10;;;;;;;11.90;10.60;;;;;;;24.22;81.58;96487.03;5053422;28;20568;-65
2021/08/15 00:27:36;;;;;;;10.70;9.70;;;;;;;24.19;82.13;96491.09;5053449;28;20617;-65
2021/08/15 00:30:03;;;;;;;11.70;10.60;;;;;;;24.12;82.26;96481.91;5053485;28;20691;-68
2021/08/15 00:32:29;;;;;;;11.97;10.27;;;;;;;24.18;81.80;96478.78;5053422;28;20403;-65
2021/08/15 00:34:55;;;;;;;11.93;10.70;;;;;;;24.20;81.69;96467.72;5061112;28;20961;-65
2021/08/15 00:37:20;;;;;;;11.27;10.27;;;;;;;24.15;82.15;96468.66;5073613;28;20166;-65
2021/08/15 00:39:45;;;;;;;11.63;10.37;;;;;;;24.18;81.96;96467.25;5073488;28;20174;-68
2021/08/15 00:42:11;;;;;;;11.63;10.40;;;;;;;24.14;81.85;96466.28;5073516;28;20647;-65
2021/08/15 00:44:36;;;;;;;10.57;9.67;;;;;;;24.13;82.20;96465.47;5072841;28;20216;-68
2021/08/15 00:47:03;;;;;;;11.40;10.40;;;;;;;24.12;82.09;96466.59;5073532;28;20562;-68
2021/08/15 00:49:28;;;;;;;10.67;9.60;;;;;;;24.04;82.13;96461.19;5071061;28;20229;-68
2021/08/15 00:51:53;;;;;;;11.10;10.10;;;;;;;23.95;82.64;96463.75;5071969;28;20436;-65
2021/08/15 00:54:20;;;;;;;12.30;11.30;;;;;;;23.71;83.51;96457.16;5072748;28;20217;-68
2021/08/15 00:56:53;;;;;;;11.73;10.73;;;;;;;23.78;83.40;96458.31;5073382;28;20270;-65
2021/08/15 00:59:19;;;;;;;10.93;10.03;;;;;;;23.78;83.27;96452.16;5073120;28;20401;-66
2021/08/15 01:01:45;;;;;;;10.40;9.50;;;;;;;23.85;82.77;96453.31;5071735;28;20417;-66
2021/08/15 01:04:11;;;;;;;11.23;10.33;;;;;;;23.93;82.41;96451.78;5065380;28;20503;-69
2021/08/15 01:06:38;;;;;;;9.57;8.77;;;;;;;23.87;82.77;96453.78;5053061;28;20540;-64
2021/08/15 01:09:05;;;;;;;10.07;9.27;;;;;;;23.87;82.58;96448.41;5052899;28;20195;-68
2021/08/15 01:11:32;;;;;;;10.13;9.20;;;;;;;23.80;82.83;96453.44;5053017;28;20429;-69
2021/08/15 01:13:58;;;;;;;10.70;9.80;;;;;;;23.82;82.82;96445.88;5052446;28;20493;-66
2021/08/15 01:16:23;;;;;;;10.90;9.93;;;;;;;23.81;82.69;96436.22;5052882;28;20838;-66
2021/08/15 01:18:48;;;;;;;11.70;10.70;;;;;;;23.85;82.58;96441.75;5058262;28;20638;-67
2021/08/15 01:21:14;;;;;;;11.00;9.97;;;;;;;23.74;82.74;96435.88;5073124;28;20532;-65
2021/08/15 01:23:43;;;;;;;10.80;10.00;;;;;;;23.82;82.20;96432.44;5072393;28;20323;-68
2021/08/15 01:26:10;;;;;;;10.80;9.80;;;;;;;23.78;82.67;96434.16;5073018;28;20225;-66
2021/08/15 01:28:35;;;;;;;11.17;10.17;;;;;;;23.68;82.87;96431.72;5073202;28;20517;-68
2021/08/15 01:31:01;;;;;;;11.97;10.77;;;;;;;23.66;83.04;96430.44;5073033;28;20455;-66
2021/08/15 01:33:31;;;;;;;12.00;10.90;;;;;;;23.66;82.75;96428.53;5067927;28;20559;-68
2021/08/15 01:35:58;;;;;;;11.20;10.20;;;;;;;23.66;82.96;96430.44;5052800;28;20198;-66
2021/08/15 01:38:25;;;;;;;10.70;9.70;;;;;;;23.62;82.94;96427.59;5052946;28;20406;-66
2021/08/15 01:40:52;;;;;;;12.07;11.00;;;;;;;23.62;82.63;96426.78;5052719;28;20912;-70
2021/08/15 01:43:17;;;;;;;12.73;11.30;;;;;;;23.58;82.42;96426.63;5052291;28;20446;-66
2021/08/15 01:45:43;;;;;;;10.93;10.03;;;;;;;23.47;82.52;96433.31;5051377;28;20466;-66
2021/08/15 01:48:09;;;;;;;11.23;10.07;;;;;;;23.25;83.54;96419.88;5053703;28;20199;-66
2021/08/15 01:50:35;;;;;;;11.40;10.27;;;;;;;23.18;84.34;96419.50;5051464;28;20175;-66
2021/08/15 01:53:00;;;;;;;10.07;9.13;;;;;;;23.21;83.95;96418.88;5052386;28;20172;-69
2021/08/15 01:55:26;;;;;;;11.10;9.80;;;;;;;23.27;83.98;96417.69;5052419;28;20434;-66
2021/08/15 01:57:51;;;;;;;11.50;10.43;;;;;;;23.32;83.84;96417.59;5052468;28;20167;-66
2021/08/15 02:00:17;;;;;;;10.30;9.30;;;;;;;23.30;83.87;96419.78;5052906;28;20314;-70
2021/08/15 02:02:43;;;;;;;10.47;9.53;;;;;;;23.21;83.91;96422.38;5067092;28;20174;-66
2021/08/15 02:05:15;;;;;;;10.50;9.60;;;;;;;23.19;84.22;96419.19;5072506;28;20191;-68
2021/08/15 02:07:40;;;;;;;10.13;9.27;;;;;;;23.04;84.54;96421.44;5072412;28;20451;-66
2021/08/15 02:10:07;;;;;;;10.30;9.40;;;;;;;23.11;84.13;96421.81;5072385;28;20405;-67
2021/08/15 02:12:32;;;;;;;11.03;10.23;;;;;;;22.99;84.71;96418.88;5072783;28;20174;-67
2021/08/15 02:14:57;;;;;;;11.37;10.27;;;;;;;22.77;86.00;96410.81;5074645;28;20427;-69
2021/08/15 02:17:23;;;;;;;11.23;10.20;;;;;;;22.86;85.58;96414.34;5061306;28;20187;-69
2021/08/15 02:19:48;;;;;;;10.60;9.57;;;;;;;22.97;84.58;96410.34;5056089;28;20620;-69
2021/08/15 02:22:13;;;;;;;10.77;9.87;;;;;;;22.99;84.73;96408.16;5056119;28;20172;-68
2021/08/15 02:24:38;;;;;;;11.30;10.33;;;;;;;23.01;84.11;96412.09;5055414;28;20207;-66
2021/08/15 02:27:04;;;;;;;10.60;9.57;;;;;;;22.89;84.52;96416.41;5056444;28;20237;-65
2021/08/15 02:29:29;;;;;;;13.90;10.13;;;;;;;22.75;84.89;96413.00;5056103;28;20195;-66
2021/08/15 02:31:54;;;;;;;11.23;10.23;;;;;;;22.65;85.66;96418.56;5067091;28;20228;-68
2021/08/15 02:34:22;;;;;;;11.47;10.47;;;;;;;22.69;85.52;96409.63;5075636;28;20211;-66
2021/08/15 02:36:47;;;;;;;10.80;9.70;;;;;;;22.77;85.03;96414.28;5075956;28;20640;-66
2021/08/15 02:39:12;;;;;;;11.60;10.40;;;;;;;22.77;84.92;96416.16;5072188;28;20418;-68
2021/08/15 02:41:38;;;;;;;11.37;10.23;;;;;;;22.62;85.40;96421.84;5055747;28;20250;-66
2021/08/15 02:44:03;;;;;;;11.30;10.10;;;;;;;22.76;84.46;96415.34;5055528;28;20642;-68
2021/08/15 02:46:29;;;;;;;11.00;10.00;;;;;;;22.81;84.49;96422.50;5055743;28;20178;-65
2021/08/15 02:48:54;;;;;;;10.33;9.43;;;;;;;22.63;84.92;96426.88;5055641;28;20195;-67
2021/08/15 02:51:20;;;;;;;10.90;9.80;;;;;;;22.39;85.71;96423.63;5055478;28;20233;-67
2021/08/15 02:53:45;;;;;;;11.00;10.13;;;;;;;22.36;85.53;96427.69;5056051;28;20167;-65
2021/08/15 02:56:10;;;;;;;11.30;10.27;;;;;;;22.29;86.36;96431.84;5075125;28;20198;-67
2021/08/15 02:58:36;;;;;;;11.03;10.03;;;;;;;21.86;87.92;96425.97;5075199;28;20625;-67
2021/08/15 03:01:01;;;;;;;10.30;9.40;;;;;;;21.90;88.06;96428.84;5073449;28;20175;-67
2021/08/15 03:03:26;;;;;;;10.30;9.37;;;;;;;21.90;87.97;96423.50;5074792;28;20232;-64
2021/08/15 03:05:52;;;;;;;11.07;9.50;;;;;;;22.02;87.08;96432.63;5075128;28;20712;-64
2021/08/15 03:08:17;;;;;;;10.87;9.80;;;;;;;22.20;86.19;96437.13;5074965;28;20248;-64
2021/08/15 03:10:42;;;;;;;10.67;9.47;;;;;;;22.17;86.50;96431.56;5074797;28;20171;-67
2021/08/15 03:13:08;;;;;;;11.13;10.13;;;;;;;22.32;85.66;96426.69;5069503;28;20178;-66
2021/08/15 03:15:33;;;;;;;11.00;9.90;;;;;;;22.28;86.09;96425.69;5062317;28;20688;-67
2021/08/15 03:17:59;;;;;;;10.60;9.70;;;;;;;22.31;85.96;96419.75;5055730;28;20175;-65
2021/08/15 03:20:24;;;;;;;11.20;10.13;;;;;;;22.35;86.03;96418.06;5074615;28;20529;-67
2021/08/15 03:22:50;;;;;;;11.20;10.17;;;;;;;22.38;85.95;96408.63;5074152;28;20171;-67
2021/08/15 03:25:15;;;;;;;10.77;9.67;;;;;;;22.45;85.77;96415.19;5073622;28;20205;-64
2021/08/15 03:27:40;;;;;;;10.73;9.87;;;;;;;22.39;85.88;96411.00;5074412;28;20206;-67
2021/08/15 03:30:07;;;;;;;10.70;9.80;;;;;;;22.41;85.99;96406.16;5073683;28;20542;-65
2021/08/15 03:32:32;;;;;;;11.40;10.30;;;;;;;22.47;85.99;96401.47;5074330;28;20540;-67
2021/08/15 03:34:58;;;;;;;11.17;10.07;;;;;;;22.58;85.34;96399.41;5073922;28;20421;-67
2021/08/15 03:37:23;;;;;;;10.87;9.97;;;;;;;22.55;85.07;96392.78;5074461;28;20527;-67
2021/08/15 03:39:48;;;;;;;11.83;10.77;;;;;;;22.56;85.25;96388.22;5074109;28;20166;-67
2021/08/15 03:42:14;;;;;;;12.13;11.13;;;;;;;22.49;85.66;96384.03;5074212;28;20170;-64
2021/08/15 03:44:39;;;;;;;12.10;11.03;;;;;;;22.44;85.50;96392.19;5071741;28;20669;-65
2021/08/15 03:47:04;;;;;;;12.23;11.13;;;;;;;22.45;85.14;96388.41;5054316;28;20186;-67
2021/08/15 03:49:30;;;;;;;11.10;10.10;;;;;;;22.40;85.22;96393.88;5055117;28;20685;-67
2021/08/15 03:51:56;;;;;;;11.50;10.50;;;;;;;22.27;85.92;96389.31;5074209;28;20197;-65
2021/08/15 03:54:22;;;;;;;11.77;10.63;;;;;;;22.25;86.23;96396.03;5073649;28;20194;-65
2021/08/15 03:56:48;;;;;;;10.57;9.73;;;;;;;22.17;86.18;96388.72;5073917;28;20475;-64
2021/08/15 03:59:14;;;;;;;11.30;10.30;;;;;;;21.93;87.38;96390.78;5074096;28;20174;-67
2021/08/15 04:01:39;;;;;;;12.03;10.93;;;;;;;21.60;88.74;96392.69;5073826;28;20413;-67
2021/08/15 04:04:05;;;;;;;11.20;10.20;;;;;;;21.11;90.92;96390.56;5073069;28;20223;-67
2021/08/15 04:06:33;;;;;;;11.80;10.67;;;;;;;21.01;92.00;96389.94;5072209;28;20202;-67
2021/08/15 04:08:59;;;;;;;10.80;9.70;;;;;;;21.16;91.69;96377.13;5053664;28;20580;-65
2021/08/15 04:11:24;;;;;;;12.30;11.30;;;;;;;21.43;89.73;96379.09;5053729;28;20892;-64
2021/08/15 04:13:50;;;;;;;11.40;10.30;;;;;;;21.60;89.06;96384.66;5063584;28;20447;-67
2021/08/15 04:16:15;;;;;;;12.87;11.67;;;;;;;21.78;87.75;96378.47;5073870;28;20213;-67
2021/08/15 04:18:41;;;;;;;11.60;10.60;;;;;;;21.83;87.43;96370.34;5073605;28;20167;-64
2021/08/15 04:21:06;;;;;;;14.43;11.00;;;;;;;21.75;88.27;96376.38;5073439;28;20171;-67
2021/08/15 04:23:32;;;;;;;11.77;10.77;;;;;;;21.79;88.16;96377.41;5073099;28;20694;-65
2021/08/15 04:25:58;;;;;;;12.40;11.10;;;;;;;21.80;88.24;96368.28;5073402;28;20186;-67
2021/08/15 04:28:24;;;;;;;11.53;10.40;;;;;;;21.89;87.95;96369.19;5064322;28;20211;-64
2021/08/15 04:30:50;;;;;;;11.90;10.70;;;;;;;21.91;87.90;96367.00;5073416;28;20397;-67
2021/08/15 04:33:18;;;;;;;11.77;10.57;;;;;;;22.06;87.00;96372.06;5073036;28;20413;-67
2021/08/15 04:35:44;;;;;;;11.77;10.67;;;;;;;22.06;86.82;96363.25;5073105;28;20198;-67
2021/08/15 04:38:09;;;;;;;12.17;10.60;;;;;;;22.14;86.56;96367.91;5073105;28;20973;-67
2021/08/15 04:40:34;;;;;;;11.03;9.93;;;;;;;22.14;86.44;96360.66;5071715;28;20182;-65
2021/08/15 04:43:00;;;;;;;11.90;11.00;;;;;;;;;;5073099;28;20281;-64
2021/08/15 04:45:25;;;;;;;12.43;11.23;;;;;;;22.14;86.58;96373.25;5069604;28;20191;-67
2021/08/15 04:47:50;;;;;;;11.87;10.97;;;;;;;22.16;86.71;96368.38;5073115;28;20669;-64
2021/08/15 04:50:16;;;;;;;11.70;10.70;;;;;;;22.12;87.07;96360.16;5072853;28;20197;-65
2021/08/15 04:52:41;;;;;;;11.30;10.20;;;;;;;22.13;87.09;96364.44;5072785;28;20217;-67
2021/08/15 04:55:07;;;;;;;12.13;10.90;;;;;;;22.20;86.88;96367.50;5072884;28;20191;-67
2021/08/15 04:57:32;;;;;;;12.67;11.47;;;;;;;22.23;86.95;96368.81;5072184;28;20196;-66
2021/08/15 04:59:58;;;;;;;13.07;11.77;;;;;;;22.27;87.00;96377.78;5052880;28;20410;-67
2021/08/15 05:02:23;;;;;;;12.73;11.67;;;;;;;22.28;87.18;96377.50;5053069;28;20190;-65
2021/08/15 05:04:49;;;;;;;14.60;13.20;;;;;;;22.27;87.41;96385.81;5052746;28;20187;-65
2021/08/15 05:07:14;;;;;;;12.70;11.60;;;;;;;22.29;87.67;96386.31;5058788;28;20174;-65
2021/08/15 05:09:39;;;;;;;14.03;12.73;;;;;;;22.31;87.74;96384.94;5073070;28;20198;-65
2021/08/15 05:12:05;;;;;;;14.23;12.97;;;;;;;22.34;87.74;96383.53;5073573;28;20174;-64
2021/08/15 05:14:30;;;;;;;13.50;12.30;;;;;;;22.40;87.60;96375.13;5072025;28;20194;-65
2021/08/15 05:16:56;;;;;;;12.73;11.43;;;;;;;22.37;87.97;96380.28;5060956;28;20179;-65
2021/08/15 05:19:21;;;;;;;12.90;11.60;;;;;;;22.36;88.32;96374.13;5053300;28;20225;-65
2021/08/15 05:21:46;;;;;;;12.40;11.30;;;;;;;22.39;88.20;96378.88;5053010;28;20218;-65
2021/08/15 05:24:12;;;;;;;13.07;11.93;;;;;;;22.45;87.98;96376.88;5052605;28;20622;-67
2021/08/15 05:26:37;;;;;;;12.70;11.50;;;;;;;22.45;88.19;96372.31;5053002;28;20697;-67
2021/08/15 05:29:03;;;;;;;13.50;12.20;;;;;;;22.55;87.65;96381.25;5065450;28;20206;-67
2021/08/15 05:31:28;;;;;;;13.50;12.30;;;;;;;22.53;88.17;96384.22;5073131;28;20163;-64
2021/08/15 05:33:53;;;;;;;14.07;12.77;;;;;;;22.57;87.93;96387.13;5072626;28;20217;-65
2021/08/15 05:36:19;;;;;;;13.73;12.63;;;;;;;22.50;88.60;96382.16;5072891;28;20175;-67
2021/08/15 05:38:44;;;;;;;12.97;11.97;;;;;;;22.46;89.18;96394.56;5072969;28;20201;-64
2021/08/15 05:41:09;;;;;;;15.50;13.67;;;;;;;22.54;88.92;96385.03;5072998;28;20178;-67
2021/08/15 05:43:35;;;;;;;13.83;12.53;;;;;;;22.64;88.78;96390.19;5061499;28;20241;-67
2021/08/15 05:46:00;;;;;;;12.70;11.60;;;;;;;22.66;88.93;96391.47;5052757;28;20195;-65
2021/08/15 05:48:26;;;;;;;12.30;11.10;;;;;;;22.74;88.61;96398.00;5052951;28;20199;-67
2021/08/15 05:50:51;;;;;;;12.60;11.40;;;;;;;22.70;88.81;96397.03;5056601;28;20190;-65
2021/08/15 05:53:16;;;;;;;12.40;11.30;;;;;;;22.74;88.74;96395.34;5056302;28;20553;-65
2021/08/15 05:55:42;;;;;;;11.13;10.20;;;;;;;22.72;88.46;96386.81;5056516;28;20282;-65
2021/08/15 05:58:07;;;;;;;12.33;11.23;;;;;;;22.73;88.70;96388.38;5065261;28;20213;-67
2021/08/15 06:00:33;;;;;;;13.17;11.97;;;;;;;22.81;88.34;96385.00;5076465;28;20182;-65
2021/08/15 06:02:58;;;;;;;11.50;10.50;;;;;;;22.87;88.10;96389.91;5076053;28;20198;-65
2021/08/15 06:05:24;;;;;;;12.23;11.23;;;;;;;22.88;88.56;96385.38;5076394;28;20190;-67
2021/08/15 06:07:49;;;;;;;11.80;10.90;;;;;;;22.91;88.70;96382.06;5076146;28;20256;-64
2021/08/15 06:10:14;;;;;;;13.23;12.13;;;;;;;22.84;88.60;96382.50;5076287;28;20648;-67
2021/08/15 06:12:40;;;;;;;12.57;11.57;;;;;;;22.86;88.84;96380.31;5075335;28;20641;-67
2021/08/15 06:15:12;;;;;;;12.27;10.97;;;;;;;23.01;88.16;96374.56;5076203;28;20696;-64
2021/08/15 06:17:38;;;;;;;12.93;11.83;;;;;;;23.12;88.10;96373.25;5076351;28;20254;-67
2021/08/15 06:20:04;;;;;;;13.53;12.13;;;;;;;23.20;87.69;96372.53;5072021;28;20508;-67
2021/08/15 06:22:29;;;;;;;13.40;12.17;;;;;;;23.25;87.54;96376.97;5056022;28;20172;-67
2021/08/15 06:24:54;;;;;;;11.20;10.30;;;;;;;23.28;87.87;96369.09;5055573;28;20528;-65
2021/08/15 06:27:20;;;;;;;13.30;12.00;;;;;;;23.32;88.24;96369.31;5056269;28;20203;-67
2021/08/15 06:29:45;;;;;;;11.47;10.57;;;;;;;23.45;88.10;96374.59;5054517;28;20285;-68
2021/08/15 06:32:10;;;;;;;13.30;12.10;;;;;;;23.53;87.61;96362.34;5055984;28;20171;-68
2021/08/15 06:34:36;;;;;;;13.63;12.40;;;;;;;23.62;87.57;96360.50;5055996;28;20191;-65
2021/08/15 06:37:01;;;;;;;12.40;11.40;;;;;;;23.65;87.39;96356.38;5062652;28;20691;-68
2021/08/15 06:39:27;;;;;;;12.40;11.37;;;;;;;23.73;87.05;96355.66;5076067;28;20212;-67
2021/08/15 06:41:52;;;;;;;12.40;11.30;;;;;;;23.79;87.15;96351.75;5074420;28;20179;-67
2021/08/15 06:44:17;;;;;;;12.67;11.67;;;;;;;23.85;86.64;96355.84;5075431;28;20187;-65
2021/08/15 06:46:43;;;;;;;12.13;11.07;;;;;;;23.88;86.98;96356.03;5075729;28;20220;-65
2021/08/15 06:49:08;;;;;;;11.17;10.27;;;;;;;23.90;86.83;96351.13;5075651;28;20199;-67
2021/08/15 06:51:33;;;;;;;12.27;11.27;;;;;;;23.97;87.16;96345.34;5059316;28;20180;-65
2021/08/15 06:53:59;;;;;;;11.83;10.83;;;;;;;23.99;86.76;96360.03;5055076;28;20630;-65
2021/08/15 06:56:25;;;;;;;12.27;11.17;;;;;;;24.06;86.38;96357.69;5055737;28;20281;-65
2021/08/15 06:58:50;;;;;;;11.90;10.90;;;;;;;24.11;86.43;96352.22;5055574;28;20245;-65
2021/08/15 07:01:17;;;;;;;11.13;10.33;;;;;;;24.16;86.37;96349.38;5054395;28;20176;-67
2021/08/15 07:03:42;;;;;;;12.10;11.00;;;;;;;24.18;86.24;96355.22;5055000;28;20163;-65
2021/08/15 07:06:07;;;;;;;10.60;9.70;;;;;;;24.22;85.92;96352.72;5069267;28;20451;-67
2021/08/15 07:08:33;;;;;;;11.93;10.93;;;;;;;24.27;86.17;96347.19;5075098;28;20213;-67
2021/08/15 07:10:58;;;;;;;13.30;11.40;;;;;;;24.31;86.04;96358.91;5075222;28;20167;-64
2021/08/15 07:13:24;;;;;;;11.50;10.33;;;;;;;24.35;85.63;96344.50;5074903;28;20163;-64
2021/08/15 07:15:53;;;;;;;11.67;10.77;;;;;;;24.40;85.64;96341.66;5075270;28;20608;-64
2021/08/15 07:18:20;;;;;;;10.83;9.83;;;;;;;24.42;85.16;96339.47;5074904;28;20162;-67
2021/08/15 07:20:46;;;;;;;11.37;10.33;;;;;;;24.49;84.73;96336.31;5074284;28;20427;-67
2021/08/15 07:23:12;;;;;;;10.77;9.97;;;;;;;24.51;84.82;96333.31;5074590;28;20411;-67
2021/08/15 07:25:38;;;;;;;11.53;10.43;;;;;;;24.52;84.40;96334.88;5074723;28;20544;-65
2021/08/15 07:28:03;;;;;;;11.47;10.47;;;;;;;24.53;83.86;96337.28;5074763;28;21006;-64
2021/08/15 07:30:29;;;;;;;12.03;11.13;;;;;;;24.57;84.11;96332.06;5074999;28;20217;-64
2021/08/15 07:32:57;;;;;;;11.97;10.97;;;;;;;24.59;83.78;96332.53;5074333;28;20254;-64
2021/08/15 07:35:24;;;;;;;13.00;11.80;;;;;;;24.61;82.76;96327.63;5070063;28;20433;-67
2021/08/15 07:37:50;;;;;;;12.17;10.97;;;;;;;24.67;82.27;96335.25;5066725;28;20422;-65
2021/08/15 07:40:17;;;;;;;13.30;12.20;;;;;;;24.72;82.76;96350.44;5054580;28;20413;-64
2021/08/15 07:42:42;;;;;;;12.90;11.70;;;;;;;24.79;82.20;96350.75;5054377;28;20402;-67
2021/08/15 07:45:08;;;;;;;12.30;11.10;;;;;;;24.86;82.01;96351.06;5054715;28;20483;-68
2021/08/15 07:47:34;;;;;;;12.30;11.10;;;;;;;24.96;81.66;96348.06;5054515;28;20664;-66
2021/08/15 07:49:59;;;;;;;12.07;11.07;;;;;;;24.89;80.35;96340.50;5054335;28;20398;-63
2021/08/15 07:52:25;;;;;;;11.93;10.93;;;;;;;24.98;80.95;96345.88;5060224;28;20202;-63
2021/08/15 07:54:50;;;;;;;12.93;11.47;;;;;;;25.02;81.38;96352.19;5073873;28;20222;-63
2021/08/15 07:57:16;;;;;;;13.37;12.27;;;;;;;25.11;80.74;96345.69;5074335;28;20170;-64
2021/08/15 07:59:41;;;;;;;12.60;11.50;;;;;;;25.20;80.81;96351.06;5074427;28;20165;-64
2021/08/15 08:02:07;;;;;;;12.00;10.90;;;;;;;25.30;79.99;96350.72;5074007;28;20163;-63
2021/08/15 08:04:33;;;;;;;12.30;11.30;;;;;;;25.37;80.32;96343.78;5068251;28;20195;-63
2021/08/15 08:07:02;;;;;;;11.17;10.27;;;;;;;25.43;80.24;96342.50;5057962;28;20166;-63
2021/08/15 08:09:28;;;;;;;11.63;10.60;;;;;;;25.48;79.73;96346.13;5073964;28;20805;-64
2021/08/15 08:11:55;;;;;;;11.33;10.43;;;;;;;25.60;79.81;96333.56;5073838;28;20409;-64
2021/08/15 08:14:21;;;;;;;13.50;12.30;;;;;;;25.54;78.59;96342.16;5073548;28;20278;-64
2021/08/15 08:16:46;;;;;;;12.37;11.27;;;;;;;25.59;76.33;96339.28;5073991;28;20517;-65
2021/08/15 08:19:11;;;;;;;13.23;12.00;;;;;;;25.28;77.63;96334.09;5073141;28;20177;-64
2021/08/15 08:21:37;;;;;;;12.57;11.60;;;;;;;25.47;77.31;96333.78;5073812;28;20169;-64
2021/08/15 08:24:06;;;;;;;11.03;10.13;;;;;;;25.69;76.59;96334.34;5073550;28;20191;-65
2021/08/15 08:26:31;;;;;;;12.33;11.37;;;;;;;25.85;76.96;96332.72;5073724;28;20657;-64
2021/08/15 08:28:57;;;;;;;12.30;11.20;;;;;;;25.95;76.63;96326.16;5073555;28;20453;-64
2021/08/15 08:31:22;;;;;;;13.23;12.13;;;;;;;26.10;76.92;96322.97;5073668;28;20201;-64
2021/08/15 08:33:48;;;;;;;11.50;10.63;;;;;;;26.24;77.28;96312.72;5070006;28;20179;-65
2021/08/15 08:36:13;;;;;;;12.17;10.70;;;;;;;26.36;77.32;96320.91;5053555;28;20167;-64
2021/08/15 08:38:39;;;;;;;13.40;12.27;;;;;;;26.27;74.68;96320.19;5053639;28;20247;-65
2021/08/15 08:41:04;;;;;;;11.70;10.67;;;;;;;26.36;75.94;96324.38;5054381;28;20170;-65
2021/08/15 08:43:31;;;;;;;12.30;11.13;;;;;;;26.50;75.78;96318.75;5064101;28;20194;-67
2021/08/15 08:45:58;;;;;;;12.63;11.50;;;;;;;26.65;75.80;96317.38;5053231;28;20206;-65
2021/08/15 08:48:24;;;;;;;13.10;11.87;;;;;;;26.76;74.76;96315.91;5066599;28;20456;-65
2021/08/15 08:50:52;;;;;;;12.20;10.67;;;;;;;26.67;73.85;96313.22;5073503;28;20401;-65
2021/08/15 08:53:17;;;;;;;12.67;11.47;;;;;;;26.80;73.80;96309.50;5073247;28;20178;-67
2021/08/15 08:55:43;;;;;;;11.17;10.37;;;;;;;26.96;73.76;96309.69;5073411;28;20421;-66
2021/08/15 08:58:08;;;;;;;10.80;9.77;;;;;;;27.11;73.00;96301.75;5073528;28;20166;-68
2021/08/15 09:00:34;;;;;;;11.07;10.07;;;;;;;27.21;71.82;96298.63;5073294;28;20600;-67
2021/08/15 09:02:59;;;;;;;11.17;10.17;;;;;;;27.31;71.68;96297.47;5072295;28;20177;-66
2021/08/15 09:05:35;;;;;;;10.67;9.77;;;;;;;27.38;71.40;96300.41;5073381;28;20244;-66
2021/08/15 09:08:01;;;;;;;11.63;10.53;;;;;;;27.45;72.21;96289.06;5073351;28;20200;-66
2021/08/15 09:10:37;;;;;;;12.80;11.70;;;;;;;27.53;71.78;96286.25;5071990;28;20409;-66
2021/08/15 09:13:08;;;;;;;12.30;11.10;;;;;;;27.58;71.70;96280.63;5071707;28;20499;-67
2021/08/15 09:15:35;;;;;;;11.53;10.53;;;;;;;27.69;71.31;96283.69;5073187;28;20421;-67
2021/08/15 09:18:00;;;;;;;11.90;10.90;;;;;;;27.74;70.68;96280.78;5070263;28;20843;-67
2021/08/15 09:20:32;;;;;;;11.57;10.67;;;;;;;27.90;69.92;96277.03;5053039;28;20418;-67
2021/08/15 09:22:57;;;;;;;11.30;10.50;;;;;;;28.05;69.60;96276.41;5068064;28;20170;-67
2021/08/15 09:25:24;;;;;;;11.20;10.17;;;;;;;28.17;69.49;96276.38;5072985;28;20929;-67
2021/08/15 09:27:55;;;;;;;11.50;10.50;;;;;;;28.25;68.59;96275.47;5073404;28;20166;-66
2021/08/15 09:30:28;;;;;;;11.83;10.83;;;;;;;28.06;67.33;96274.50;5073411;28;21089;-67
2021/08/15 09:32:58;;;;;;;12.10;11.10;;;;;;;28.13;67.12;96274.72;5073101;28;20476;-67
2021/08/15 09:35:41;;;;;;;11.43;10.33;;;;;;;27.81;68.94;96278.31;5053082;28;20829;-66
2021/08/15 09:38:11;;;;;;;12.20;11.00;;;;;;;28.09;67.92;96271.09;5053429;28;21005;-64
2021/08/15 09:40:45;;;;;;;11.73;10.83;;;;;;;28.30;67.49;96260.97;5053357;28;20402;-65
2021/08/15 09:43:19;;;;;;;10.90;10.00;;;;;;;28.41;67.06;96270.94;5051587;28;20425;-65
2021/08/15 09:45:53;;;;;;;10.40;9.53;;;;;;;28.61;66.35;96273.88;5053061;28;20426;-67
2021/08/15 09:48:27;;;;;;;12.53;11.53;;;;;;;28.78;67.51;96268.16;5053560;28;20553;-67
2021/08/15 09:51:09;;;;;;;13.13;12.07;;;;;;;28.90;68.04;96266.19;5053062;28;20411;-65
2021/08/15 09:53:40;;;;;;;13.30;12.20;;;;;;;28.92;69.34;96277.47;5052733;28;20406;-66
2021/08/15 09:56:06;;;;;;;10.77;9.87;;;;;;;28.95;66.44;96271.34;5052928;28;20892;-67
2021/08/15 09:58:32;;;;;;;11.40;10.33;;;;;;;28.93;65.36;96270.94;5061201;28;20401;-66
2021/08/15 10:01:00;;;;;;;10.90;9.90;;;;;;;28.54;64.80;96265.53;5072045;28;20415;-64
2021/08/15 10:03:27;;;;;;;11.53;10.63;;;;;;;28.87;66.58;96266.88;5071562;28;20275;-66
2021/08/15 10:05:54;;;;;;;11.60;10.70;;;;;;;28.90;64.14;96265.41;5058207;28;20440;-66
2021/08/15 10:08:21;;;;;;;11.17;10.27;;;;;;;28.84;65.39;96264.88;5056175;28;20452;-66
2021/08/15 10:10:48;;;;;;;10.53;9.73;;;;;;;28.89;65.62;96259.22;5072270;28;20401;-66
2021/08/15 10:13:17;;;;;;;11.83;10.83;;;;;;;28.98;66.14;96253.66;5072142;28;20415;-66
2021/08/15 10:15:51;;;;;;;11.53;10.53;;;;;;;29.05;66.47;96245.72;5072926;28;20423;-66
2021/08/15 10:18:20;;;;;;;12.07;10.83;;;;;;;28.97;64.83;96243.97;5072670;28;20400;-66
2021/08/15 10:20:48;;;;;;;13.73;11.07;;;;;;;28.87;63.85;96250.66;5072216;28;20508;-66
2021/08/15 10:23:14;;;;;;;12.20;10.93;;;;;;;28.79;65.77;96248.09;5065286;28;20428;-69
2021/08/15 10:25:44;;;;;;;12.70;11.47;;;;;;;28.84;65.71;96242.44;5052136;28;20484;-67
2021/08/15 10:28:29;;;;;;;12.70;11.50;;;;;;;29.10;66.98;96245.44;5052278;28;20449;-66
2021/08/15 10:30:56;;;;;;;10.20;9.43;;;;;;;29.48;67.14;96231.41;5051690;28;20858;-67
2021/08/15 10:33:32;;;;;;;12.00;11.07;;;;;;;29.26;66.12;96232.78;5052193;28;20430;-67
2021/08/15 10:36:33;;;;;;;13.07;10.90;;;;;;;29.39;64.51;96235.03;5054821;28;21048;-67
2021/08/15 10:39:00;;;;;;;11.53;10.60;;;;;;;29.42;63.51;96240.91;5059909;28;20445;-67
2021/08/15 10:41:44;;;;;;;12.57;11.23;;;;;;;29.23;63.30;96233.47;5050980;28;20991;-69
2021/08/15 10:44:10;;;;;;;13.67;11.27;;;;;;;29.40;64.01;96225.78;5051974;28;20410;-67
2021/08/15 10:46:36;;;;;;;11.47;10.50;;;;;;;29.53;61.86;96229.22;5053590;28;20764;-67
2021/08/15 10:49:04;;;;;;;10.63;9.50;;;;;;;29.66;64.68;96227.97;5055582;28;20218;-66
2021/08/15 10:51:43;;;;;;;11.60;10.50;;;;;;;29.56;63.48;96233.13;5055526;28;20436;-67
2021/08/15 10:54:33;;;;;;;10.90;9.93;;;;;;;29.53;62.92;96229.22;5072702;28;20445;-66
2021/08/15 10:57:23;;;;;;;11.43;10.53;;;;;;;29.69;64.38;96229.22;5074628;28;20420;-66
2021/08/15 10:59:48;;;;;;;11.23;10.13;;;;;;;29.73;63.83;96222.72;5073414;28;20432;-66
2021/08/15 11:02:19;;;;;;;11.10;10.30;;;;;;;29.88;63.44;96216.50;5073504;28;20417;-66
2021/08/15 11:04:54;;;;;;;11.53;10.30;;;;;;;29.96;62.38;96214.75;5072926;28;20285;-65
2021/08/15 11:07:37;;;;;;;12.10;11.10;;;;;;;29.80;60.97;96206.66;5072553;28;20489;-66
2021/08/15 11:10:05;;;;;;;10.77;9.87;;;;;;;29.66;63.46;96208.22;5073324;28;20421;-67
2021/08/15 11:12:30;;;;;;;10.77;9.90;;;;;;;29.88;62.88;96208.38;5072996;28;20401;-66
2021/08/15 11:14:59;;;;;;;11.30;10.20;;;;;;;29.70;61.11;96193.63;5072376;28;20501;-66
2021/08/15 11:17:27;;;;;;;11.73;10.70;;;;;;;29.77;62.00;96193.78;5073059;28;20183;-66